Time;durP1;ratioP1;P1;durP2;ratioP2;P2;SDS_P1;SDS_P2;PMS_P1;PMS_P2;Temp;Humidity;BMP_temperature;BMP_pressure;BME280_temperature;BME280_humidity;BME280_pressure;Samples;Min_cycle;Max_cycle;Signal;HPM_P1;HPM_P2
2024/03/14 00:01:13;;;;;;;27.20;17.30;;;10.60;99.90;;;;;;5037403;28;20877;-61
2024/03/14 00:03:40;;;;;;;24.80;16.20;;;10.50;99.90;;;;;;5037258;28;20449;-61
2024/03/14 00:06:07;;;;;;;29.23;17.03;;;10.50;99.90;;;;;;5036647;28;20464;-60
2024/03/14 00:08:34;;;;;;;26.87;18.33;;;10.50;99.90;;;;;;5036450;28;20448;-61
2024/03/14 00:11:01;;;;;;;26.40;17.77;;;10.50;99.90;;;;;;5037614;28;20437;-61
2024/03/14 00:13:29;;;;;;;27.17;16.50;;;10.50;99.90;;;;;;5039512;28;20448;-61
2024/03/14 00:15:56;;;;;;;24.53;16.37;;;10.50;99.90;;;;;;5043528;28;20463;-61
2024/03/14 00:18:24;;;;;;;25.10;18.10;;;10.60;99.90;;;;;;5044312;28;20476;-61
2024/03/14 00:20:51;;;;;;;26.00;16.80;;;10.60;99.90;;;;;;5044273;28;20788;-61
2024/03/14 00:23:18;;;;;;;26.00;17.60;;;10.60;99.90;;;;;;5043117;28;20444;-61
2024/03/14 00:25:45;;;;;;;23.07;16.47;;;10.60;99.90;;;;;;5042261;28;20497;-62
2024/03/14 00:28:12;;;;;;;27.23;15.80;;;10.60;99.90;;;;;;5039384;28;20440;-61
2024/03/14 00:30:39;;;;;;;27.33;19.63;;;10.60;99.90;;;;;;5043291;28;20530;-61
2024/03/14 00:33:06;;;;;;;27.27;17.83;;;10.60;99.90;;;;;;5042432;28;20471;-61
2024/03/14 00:35:33;;;;;;;26.57;17.70;;;10.60;99.90;;;;;;5041785;28;20479;-61
2024/03/14 00:38:00;;;;;;;30.27;19.10;;;10.60;99.90;;;;;;5042451;28;20996;-61
2024/03/14 00:40:28;;;;;;;25.83;17.67;;;10.60;99.90;;;;;;5048124;28;20428;-62
2024/03/14 00:42:56;;;;;;;29.43;18.53;;;10.60;99.90;;;;;;5055832;28;20448;-61
2024/03/14 00:45:23;;;;;;;26.60;19.50;;;10.60;99.90;;;;;;5047571;28;20464;-62
2024/03/14 00:47:50;;;;;;;29.53;18.73;;;10.60;99.90;;;;;;5046775;28;20443;-61
2024/03/14 00:50:19;;;;;;;25.20;18.27;;;10.60;99.90;;;;;;5046782;28;20490;-61
2024/03/14 00:52:46;;;;;;;27.53;18.30;;;10.60;99.90;;;;;;5047914;28;20843;-61
2024/03/14 00:55:13;;;;;;;29.17;18.50;;;10.50;99.90;;;;;;5050233;28;20459;-61
2024/03/14 00:57:40;;;;;;;26.67;18.53;;;10.60;99.90;;;;;;5049037;28;20493;-60
2024/03/14 01:00:11;;;;;;;26.10;18.20;;;10.60;99.90;;;;;;5049138;28;20484;-61
2024/03/14 01:02:38;;;;;;;26.30;18.70;;;10.50;99.90;;;;;;5046237;28;20599;-61
2024/03/14 01:05:05;;;;;;;29.33;19.17;;;10.50;99.90;;;;;;5047391;28;20475;-61
2024/03/14 01:07:33;;;;;;;26.60;18.80;;;10.50;99.90;;;;;;5046511;28;20481;-61
2024/03/14 01:09:59;;;;;;;27.63;18.00;;;10.60;99.90;;;;;;5047946;28;20439;-60
2024/03/14 01:12:26;;;;;;;28.93;18.47;;;10.50;99.90;;;;;;5052669;28;20440;-61
2024/03/14 01:14:53;;;;;;;26.90;17.40;;;10.50;99.90;;;;;;5051890;28;20466;-61
2024/03/14 01:17:20;;;;;;;27.17;18.00;;;10.50;99.90;;;;;;5050084;28;20566;-60
2024/03/14 01:19:47;;;;;;;28.00;17.90;;;10.50;99.90;;;;;;5045828;28;20484;-60
2024/03/14 01:22:14;;;;;;;28.00;18.67;;;10.50;99.90;;;;;;5042841;28;20938;-60
2024/03/14 01:24:41;;;;;;;26.27;17.97;;;10.50;99.90;;;;;;5040512;28;20452;-62
2024/03/14 01:27:09;;;;;;;28.50;19.17;;;10.50;99.90;;;;;;5048174;28;20444;-61
2024/03/14 01:29:37;;;;;;;30.73;19.23;;;10.50;99.90;;;;;;5055153;28;20448;-61
2024/03/14 01:32:04;;;;;;;28.83;18.80;;;10.60;99.90;;;;;;5047356;28;20509;-61
2024/03/14 01:34:32;;;;;;;29.47;18.37;;;10.60;99.90;;;;;;5047395;28;21008;-61
2024/03/14 01:37:02;;;;;;;26.47;18.00;;;10.50;99.90;;;;;;5042773;28;20528;-61
2024/03/14 01:39:31;;;;;;;25.07;17.40;;;10.50;99.90;;;;;;5043144;28;20464;-61
2024/03/14 01:41:58;;;;;;;26.30;18.13;;;10.50;99.90;;;;;;5041368;28;20436;-60
2024/03/14 01:44:24;;;;;;;25.97;17.47;;;10.60;99.90;;;;;;5040539;28;20451;-60
2024/03/14 01:46:53;;;;;;;24.80;17.83;;;10.50;99.90;;;;;;5039686;28;20456;-61
2024/03/14 01:49:19;;;;;;;26.60;16.83;;;10.50;99.90;;;;;;5038817;28;20957;-61
2024/03/14 01:51:46;;;;;;;27.03;17.23;;;10.50;99.90;;;;;;5039397;28;20819;-61
2024/03/14 01:54:13;;;;;;;26.17;17.37;;;10.50;99.90;;;;;;5039234;28;20450;-61
2024/03/14 01:56:57;;;;;;;25.40;16.80;;;10.50;99.90;;;;;;5038774;28;20475;-61
2024/03/14 01:59:27;;;;;;;23.97;17.70;;;10.50;99.90;;;;;;5041225;28;20482;-61
2024/03/14 02:01:54;;;;;;;23.40;16.70;;;10.60;99.90;;;;;;5039186;28;20809;-61
2024/03/14 02:04:22;;;;;;;27.03;17.07;;;10.60;99.90;;;;;;5038673;28;20444;-61
2024/03/14 02:06:50;;;;;;;26.10;16.50;;;10.50;99.90;;;;;;5039094;28;20509;-62
2024/03/14 02:09:22;;;;;;;23.53;17.50;;;10.60;99.90;;;;;;5039898;28;20447;-61
2024/03/14 02:11:49;;;;;;;27.20;16.30;;;10.50;99.90;;;;;;5040047;28;20515;-61
2024/03/14 02:14:16;;;;;;;23.60;15.37;;;10.60;99.90;;;;;;5038301;28;20455;-61
2024/03/14 02:16:43;;;;;;;24.10;15.53;;;10.60;99.90;;;;;;5038171;28;21027;-61
2024/03/14 02:19:11;;;;;;;26.53;18.30;;;10.60;99.90;;;;;;5038711;28;20476;-61
2024/03/14 02:21:39;;;;;;;23.20;15.60;;;10.60;99.90;;;;;;5038428;28;20448;-61
2024/03/14 02:24:06;;;;;;;22.43;15.80;;;10.60;99.90;;;;;;5038345;28;20857;-61
2024/03/14 02:26:39;;;;;;;25.07;16.40;;;10.60;99.90;;;;;;5038530;28;20570;-61
2024/03/14 02:29:07;;;;;;;20.27;14.33;;;10.60;99.90;;;;;;5040239;28;20421;-62
2024/03/14 02:31:34;;;;;;;20.83;15.10;;;10.60;99.90;;;;;;5049636;28;20436;-61
2024/03/14 02:34:01;;;;;;;21.43;14.70;;;10.60;99.90;;;;;;5055113;28;20455;-61
2024/03/14 02:36:28;;;;;;;23.67;15.70;;;10.60;99.90;;;;;;5050730;28;20464;-62
2024/03/14 02:38:55;;;;;;;20.30;13.33;;;10.60;99.90;;;;;;5050184;28;20573;-61
2024/03/14 02:41:22;;;;;;;19.17;14.40;;;10.60;99.90;;;;;;5044452;28;20436;-61
2024/03/14 02:43:50;;;;;;;23.17;14.70;;;10.60;99.90;;;;;;5043269;28;21033;-61
2024/03/14 02:46:17;;;;;;;18.60;13.77;;;10.60;99.90;;;;;;5040950;28;20463;-61
2024/03/14 02:48:44;;;;;;;23.70;14.80;;;10.70;99.90;;;;;;5037934;28;20456;-61
2024/03/14 02:51:11;;;;;;;21.50;14.60;;;10.70;99.90;;;;;;5037658;28;20439;-61
2024/03/14 02:53:38;;;;;;;20.53;14.10;;;10.70;99.90;;;;;;5037091;28;20510;-62
2024/03/14 02:56:08;;;;;;;18.97;13.73;;;10.70;99.90;;;;;;5037512;28;20458;-62
2024/03/14 02:58:36;;;;;;;18.37;13.47;;;10.70;99.90;;;;;;5039449;28;20455;-61
2024/03/14 03:01:08;;;;;;;19.70;13.93;;;10.70;99.90;;;;;;5037990;28;20447;-60
2024/03/14 03:03:36;;;;;;;21.70;13.80;;;10.70;99.90;;;;;;5037897;28;20472;-61
2024/03/14 03:06:03;;;;;;;20.63;13.47;;;10.70;99.90;;;;;;5037576;28;20479;-61
2024/03/14 03:08:31;;;;;;;18.07;12.70;;;10.70;99.90;;;;;;5037471;28;20471;-60
2024/03/14 03:10:58;;;;;;;19.87;13.97;;;10.70;99.90;;;;;;5037431;28;20812;-61
2024/03/14 03:13:25;;;;;;;29.47;14.47;;;10.70;99.90;;;;;;5037266;28;20448;-61
2024/03/14 03:15:53;;;;;;;18.53;13.80;;;10.70;99.90;;;;;;5037429;28;20456;-63
2024/03/14 03:18:19;;;;;;;18.90;14.10;;;10.70;99.90;;;;;;5036824;28;20505;-61
2024/03/14 03:20:46;;;;;;;19.17;13.97;;;10.70;99.90;;;;;;5036498;28;20487;-61
2024/03/14 03:23:17;;;;;;;17.40;12.30;;;10.70;99.90;;;;;;5036804;28;20444;-62
2024/03/14 03:25:43;;;;;;;19.33;13.03;;;10.70;99.90;;;;;;5037764;28;20508;-61
2024/03/14 03:28:10;;;;;;;16.93;12.87;;;10.70;99.90;;;;;;5037382;28;20970;-61
2024/03/14 03:30:37;;;;;;;19.33;13.70;;;10.70;99.90;;;;;;5036884;28;20436;-62
2024/03/14 03:33:04;;;;;;;16.50;12.57;;;10.60;99.90;;;;;;5037001;28;20493;-60
2024/03/14 03:35:31;;;;;;;17.90;13.50;;;10.60;99.90;;;;;;5037029;28;20475;-60
2024/03/14 03:38:00;;;;;;;17.40;13.63;;;10.70;99.90;;;;;;5036986;28;20512;-63
2024/03/14 03:40:30;;;;;;;16.80;13.10;;;10.60;99.90;;;;;;5036659;28;20522;-61
2024/03/14 03:42:57;;;;;;;22.03;13.30;;;10.70;99.90;;;;;;5037383;28;20537;-60
2024/03/14 03:45:24;;;;;;;15.70;11.93;;;10.60;99.90;;;;;;5038083;28;20507;-60
2024/03/14 03:47:52;;;;;;;17.33;12.63;;;10.60;99.90;;;;;;5037494;28;20490;-61
2024/03/14 03:50:19;;;;;;;19.33;11.90;;;10.60;99.90;;;;;;5037790;28;20539;-61
2024/03/14 03:52:46;;;;;;;15.97;12.60;;;10.60;99.90;;;;;;5039344;28;20537;-61
2024/03/14 03:55:16;;;;;;;18.30;12.50;;;10.60;99.90;;;;;;5038898;28;20993;-61
2024/03/14 03:57:42;;;;;;;16.50;12.27;;;10.60;99.90;;;;;;5040154;28;20436;-62
2024/03/14 04:00:32;;;;;;;17.90;13.20;;;10.60;99.90;;;;;;5038354;28;21045;-61
2024/03/14 04:02:55;;;;;;;17.40;12.40;;;10.60;99.90;;;;;;5038529;28;20437;-60
2024/03/14 04:05:22;;;;;;;19.80;11.87;;;10.50;99.90;;;;;;5035429;28;20973;-61
2024/03/14 04:07:49;;;;;;;18.33;12.53;;;10.50;99.90;;;;;;5036612;28;20796;-61
2024/03/14 04:13:21;;;;;;;17.30;12.30;;;10.40;99.90;;;;;;5170895;27;20578;-61
2024/03/14 04:15:48;;;;;;;16.10;12.57;;;10.40;99.90;;;;;;5141391;27;20823;-62
2024/03/14 04:18:14;;;;;;;17.87;13.13;;;10.40;99.90;;;;;;5131565;28;20524;-61
2024/03/14 04:20:41;;;;;;;19.20;12.60;;;10.30;99.90;;;;;;5130729;28;20447;-61
2024/03/14 04:23:10;;;;;;;18.03;13.47;;;10.20;99.90;;;;;;5135893;28;20429;-61
2024/03/14 04:25:37;;;;;;;18.17;12.23;;;10.20;99.90;;;;;;5143899;27;20489;-61
2024/03/14 04:28:07;;;;;;;17.63;13.10;;;10.20;99.90;;;;;;5138629;28;20428;-60
2024/03/14 04:30:34;;;;;;;18.80;12.53;;;10.20;99.90;;;;;;5132825;28;20429;-62
2024/03/14 04:33:01;;;;;;;18.33;12.83;;;10.20;99.90;;;;;;5131773;28;20847;-62
2024/03/14 04:35:28;;;;;;;18.10;13.00;;;10.20;99.90;;;;;;5131555;27;20981;-61
2024/03/14 04:37:55;;;;;;;18.30;11.63;;;10.20;99.90;;;;;;5131606;28;20493;-61
2024/03/14 04:40:22;;;;;;;19.17;12.83;;;10.20;99.90;;;;;;5132109;28;20468;-61
2024/03/14 04:42:52;;;;;;;19.60;14.00;;;10.10;99.90;;;;;;5131995;28;20436;-61
2024/03/14 04:45:21;;;;;;;18.17;12.20;;;10.10;99.90;;;;;;5132244;27;20457;-61
2024/03/14 04:47:48;;;;;;;17.50;11.60;;;10.10;99.90;;;;;;5131819;28;20449;-61
2024/03/14 04:50:16;;;;;;;16.37;12.63;;;10.10;99.90;;;;;;5134793;28;20799;-62
2024/03/14 04:52:44;;;;;;;14.33;11.50;;;10.10;99.90;;;;;;5140568;28;20482;-62
2024/03/14 04:55:11;;;;;;;16.60;12.57;;;10.10;99.90;;;;;;5142098;27;20463;-62
2024/03/14 04:57:40;;;;;;;15.73;11.90;;;10.10;99.90;;;;;;5135232;28;20441;-61
2024/03/14 05:00:11;;;;;;;16.00;12.63;;;10.10;99.90;;;;;;5133945;28;20523;-60
2024/03/14 05:02:38;;;;;;;17.67;12.43;;;10.10;99.90;;;;;;5135146;28;20418;-61
2024/03/14 05:05:06;;;;;;;16.63;12.77;;;10.10;99.90;;;;;;5131930;27;20464;-61
2024/03/14 05:07:33;;;;;;;15.07;10.57;;;10.10;99.90;;;;;;5132081;28;20441;-61
2024/03/14 05:10:00;;;;;;;21.57;13.13;;;10.00;99.90;;;;;;5132639;28;20440;-61
2024/03/14 05:12:27;;;;;;;16.80;12.80;;;10.00;99.90;;;;;;5131884;28;20583;-61
2024/03/14 05:14:54;;;;;;;17.27;12.27;;;10.00;99.90;;;;;;5131933;27;20810;-61
2024/03/14 05:17:21;;;;;;;17.53;12.37;;;10.00;99.90;;;;;;5132165;28;20441;-61
2024/03/14 05:19:50;;;;;;;17.73;12.90;;;10.00;99.90;;;;;;5131646;28;20443;-61
2024/03/14 05:22:17;;;;;;;18.80;13.17;;;9.90;99.90;;;;;;5132812;28;20441;-60
2024/03/14 05:24:44;;;;;;;16.20;12.70;;;9.90;99.90;;;;;;5119152;28;20437;-61
2024/03/14 05:27:12;;;;;;;18.20;14.10;;;9.90;99.90;;;;;;5118667;28;20444;-62
2024/03/14 05:29:38;;;;;;;14.00;12.30;;;10.00;99.90;;;;;;5122028;28;20498;-62
2024/03/14 05:32:11;;;;;;;16.53;12.97;;;10.00;99.90;;;;;;5121262;28;20479;-62
2024/03/14 05:34:38;;;;;;;17.90;12.30;;;10.00;99.90;;;;;;5122599;28;20441;-61
2024/03/14 05:37:05;;;;;;;20.63;13.13;;;10.00;99.90;;;;;;5123489;28;20438;-60
2024/03/14 05:39:32;;;;;;;17.97;13.53;;;10.00;99.90;;;;;;5125510;28;20433;-61
2024/03/14 05:42:00;;;;;;;18.90;12.83;;;9.90;99.90;;;;;;5128197;28;20596;-61
2024/03/14 05:44:28;;;;;;;16.67;13.50;;;9.90;99.90;;;;;;5130945;28;20481;-61
2024/03/14 05:46:55;;;;;;;16.57;12.40;;;9.90;99.90;;;;;;5118036;28;20469;-62
2024/03/14 05:49:22;;;;;;;19.27;13.50;;;10.00;99.90;;;;;;5116121;28;20434;-61
2024/03/14 05:51:49;;;;;;;18.30;12.70;;;10.00;99.90;;;;;;5117072;28;20488;-61
2024/03/14 05:54:16;;;;;;;19.20;12.40;;;10.00;99.90;;;;;;5116592;28;20441;-61
2024/03/14 05:56:43;;;;;;;17.13;13.13;;;10.10;99.90;;;;;;5116260;28;20468;-61
2024/03/14 05:59:10;;;;;;;18.03;12.83;;;10.10;99.90;;;;;;5116457;28;20943;-60
2024/03/14 06:01:38;;;;;;;17.20;13.27;;;10.10;99.90;;;;;;5116620;28;20445;-60
2024/03/14 06:04:06;;;;;;;17.27;12.10;;;10.20;99.90;;;;;;5116874;28;20446;-60
2024/03/14 06:06:34;;;;;;;21.33;14.37;;;10.30;99.90;;;;;;5117797;27;20518;-62
2024/03/14 06:09:03;;;;;;;17.20;11.93;;;10.30;99.90;;;;;;5117170;28;20441;-60
2024/03/14 06:11:31;;;;;;;18.37;12.97;;;10.40;99.90;;;;;;5116631;28;20449;-61
2024/03/14 06:13:58;;;;;;;16.70;12.37;;;10.40;99.90;;;;;;5116172;28;20425;-60
2024/03/14 06:16:25;;;;;;;18.07;12.60;;;10.40;99.90;;;;;;5130018;28;20456;-62
2024/03/14 06:18:52;;;;;;;17.43;13.30;;;10.50;99.90;;;;;;5131085;28;20445;-61
2024/03/14 06:21:21;;;;;;;16.93;12.87;;;10.50;99.90;;;;;;5118221;28;20820;-61
2024/03/14 06:23:49;;;;;;;18.27;12.03;;;10.60;99.90;;;;;;5118198;28;20437;-61
2024/03/14 06:26:16;;;;;;;18.10;13.40;;;10.60;99.90;;;;;;5117087;28;20488;-61
2024/03/14 06:28:43;;;;;;;18.60;13.90;;;10.60;99.90;;;;;;5117913;28;20441;-61
2024/03/14 06:31:11;;;;;;;16.97;12.80;;;10.70;99.90;;;;;;5117154;28;20440;-62
2024/03/14 06:33:38;;;;;;;17.23;12.63;;;10.70;99.90;;;;;;5116196;28;20524;-61
2024/03/14 06:36:07;;;;;;;15.63;13.17;;;10.70;99.90;;;;;;5116087;28;20457;-62
2024/03/14 06:38:34;;;;;;;18.40;12.60;;;10.80;99.90;;;;;;5116124;28;20505;-62
2024/03/14 06:41:00;;;;;;;18.77;13.37;;;10.80;99.90;;;;;;5116246;28;20445;-62
2024/03/14 06:43:27;;;;;;;18.47;13.77;;;10.90;99.90;;;;;;5116359;28;20521;-64
2024/03/14 06:45:54;;;;;;;15.70;13.37;;;11.00;99.90;;;;;;5116700;28;20468;-62
2024/03/14 06:48:21;;;;;;;18.20;13.40;;;11.10;99.90;;;;;;5117393;28;20469;-62
2024/03/14 06:50:48;;;;;;;16.47;11.87;;;11.20;99.90;;;;;;5116568;28;20433;-58
2024/03/14 06:53:16;;;;;;;16.53;12.70;;;11.20;99.90;;;;;;5116450;28;20975;-61
2024/03/14 06:55:43;;;;;;;19.33;13.03;;;11.30;99.90;;;;;;5116154;28;20489;-62
2024/03/14 06:58:11;;;;;;;17.87;13.23;;;11.30;99.90;;;;;;5115992;28;20442;-61
2024/03/14 07:00:40;;;;;;;16.70;12.37;;;11.40;99.90;;;;;;5116177;28;20532;-62
2024/03/14 07:03:07;;;;;;;17.13;13.20;;;11.40;99.90;;;;;;5116390;28;20441;-61
2024/03/14 07:05:33;;;;;;;17.57;12.53;;;11.40;99.90;;;;;;5120594;28;20552;-64
2024/03/14 07:08:03;;;;;;;19.13;13.60;;;11.40;99.90;;;;;;5116090;28;20441;-62
2024/03/14 07:10:30;;;;;;;17.77;13.10;;;11.40;99.90;;;;;;5120699;28;20438;-62
2024/03/14 07:12:57;;;;;;;16.67;11.87;;;11.40;99.90;;;;;;5125963;28;20549;-62
2024/03/14 07:15:24;;;;;;;19.57;14.57;;;11.40;99.90;;;;;;5121137;28;20514;-63
2024/03/14 07:17:51;;;;;;;22.17;13.80;;;11.40;99.90;;;;;;5117620;28;20829;-61
2024/03/14 07:20:18;;;;;;;20.73;13.50;;;11.50;99.90;;;;;;5115730;28;20452;-62
2024/03/14 07:22:45;;;;;;;17.27;14.97;;;11.50;99.90;;;;;;5115745;28;20490;-62
2024/03/14 07:25:13;;;;;;;14.33;11.90;;;11.60;99.90;;;;;;5115533;28;21051;-61
2024/03/14 07:27:40;;;;;;;16.10;12.40;;;11.60;99.90;;;;;;5117231;28;20866;-61
2024/03/14 07:30:14;;;;;;;22.37;14.23;;;11.70;99.90;;;;;;5118638;28;20433;-62
2024/03/14 07:32:41;;;;;;;18.43;13.97;;;11.70;99.90;;;;;;5119908;28;20477;-61
2024/03/14 07:35:09;;;;;;;23.37;12.77;;;11.80;99.90;;;;;;5121307;28;20453;-62
2024/03/14 07:37:36;;;;;;;17.30;12.47;;;11.80;99.90;;;;;;5122555;28;20441;-62
2024/03/14 07:40:04;;;;;;;18.90;11.57;;;11.90;99.90;;;;;;5124781;28;20494;-61
2024/03/14 07:42:31;;;;;;;17.93;13.53;;;12.00;99.90;;;;;;5121901;28;20935;-62
2024/03/14 07:44:58;;;;;;;14.00;12.07;;;12.10;99.90;;;;;;5123004;28;20874;-62
2024/03/14 07:47:25;;;;;;;19.33;12.73;;;12.20;99.90;;;;;;5123531;28;20441;-61
2024/03/14 07:49:52;;;;;;;15.53;11.47;;;12.30;99.90;;;;;;5124917;28;20475;-62
2024/03/14 07:52:19;;;;;;;17.53;13.07;;;12.40;99.90;;;;;;5126997;28;20452;-62
2024/03/14 07:54:47;;;;;;;18.77;12.87;;;12.50;99.90;;;;;;5125019;28;20466;-62
2024/03/14 07:57:15;;;;;;;19.03;11.70;;;12.60;99.90;;;;;;5125096;28;20445;-61
2024/03/14 07:59:42;;;;;;;14.40;11.50;;;12.80;99.90;;;;;;5122504;28;20445;-62
2024/03/14 08:02:11;;;;;;;15.03;12.10;;;12.90;99.90;;;;;;5120339;28;20453;-62
2024/03/14 08:04:38;;;;;;;17.07;12.10;;;13.10;99.90;;;;;;5118514;28;20946;-62
2024/03/14 08:07:13;;;;;;;17.23;11.73;;;13.20;99.90;;;;;;5117188;28;20468;-62
2024/03/14 08:09:41;;;;;;;19.47;11.83;;;13.30;99.90;;;;;;5117720;28;20453;-62
2024/03/14 08:12:08;;;;;;;14.87;11.50;;;13.40;99.90;;;;;;5118629;28;20449;-62
2024/03/14 08:14:35;;;;;;;13.87;11.13;;;13.40;99.90;;;;;;5127365;28;20486;-62
2024/03/14 08:17:06;;;;;;;16.73;11.00;;;13.50;99.90;;;;;;5120554;28;20444;-61
2024/03/14 08:19:34;;;;;;;12.50;10.43;;;13.60;99.90;;;;;;5117410;28;20459;-62
2024/03/14 08:22:04;;;;;;;13.13;10.43;;;13.80;99.90;;;;;;5116629;28;20445;-62
2024/03/14 08:24:41;;;;;;;13.80;12.07;;;13.90;99.90;;;;;;5115429;28;20476;-61
2024/03/14 08:27:09;;;;;;;29.73;11.83;;;14.00;99.90;;;;;;5115290;28;20848;-62
2024/03/14 08:29:36;;;;;;;23.43;10.73;;;14.10;99.90;;;;;;5115660;28;20507;-63
2024/03/14 08:32:03;;;;;;;14.57;10.37;;;14.10;99.90;;;;;;5117896;28;20804;-61
2024/03/14 08:34:30;;;;;;;12.63;9.83;;;14.10;99.90;;;;;;5116854;28;20477;-63
2024/03/14 08:36:57;;;;;;;12.07;10.40;;;14.00;99.90;;;;;;5116476;28;20448;-61
2024/03/14 08:39:26;;;;;;;13.10;10.63;;;14.00;99.90;;;;;;5117042;28;20452;-61
2024/03/14 08:41:53;;;;;;;12.33;10.93;;;13.90;99.90;;;;;;5114828;28;20927;-62
2024/03/14 08:44:23;;;;;;;20.83;11.23;;;13.90;99.90;;;;;;5115242;28;20908;-62
2024/03/14 08:46:50;;;;;;;15.30;11.20;;;13.80;99.90;;;;;;5115981;28;20458;-63
2024/03/14 08:49:17;;;;;;;13.60;10.80;;;13.90;99.90;;;;;;5117407;28;20530;-63
2024/03/14 08:51:45;;;;;;;19.07;11.50;;;13.90;99.90;;;;;;5117474;28;20812;-62
2024/03/14 08:54:28;;;;;;;16.53;9.93;;;14.00;99.90;;;;;;5115904;28;20481;-62
2024/03/14 08:56:58;;;;;;;14.63;10.43;;;14.00;99.90;;;;;;5115131;28;20462;-62
2024/03/14 08:59:35;;;;;;;13.90;10.43;;;14.10;99.90;;;;;;5117174;28;20458;-62
2024/03/14 09:02:02;;;;;;;14.93;10.20;;;14.20;99.90;;;;;;5119307;28;20887;-63
2024/03/14 09:04:29;;;;;;;13.20;10.17;;;14.30;99.90;;;;;;5118881;28;20445;-62
2024/03/14 09:06:57;;;;;;;12.10;9.70;;;14.40;99.90;;;;;;5119596;28;20457;-62
2024/03/14 09:09:34;;;;;;;12.07;9.50;;;14.40;99.90;;;;;;5121955;28;20517;-62
2024/03/14 09:12:09;;;;;;;11.33;10.13;;;14.40;99.90;;;;;;5119958;28;20485;-62
2024/03/14 09:14:37;;;;;;;13.67;10.57;;;14.50;99.90;;;;;;5120274;28;20468;-63
2024/03/14 09:17:04;;;;;;;14.60;10.77;;;14.60;99.90;;;;;;5121655;28;20443;-61
2024/03/14 09:19:32;;;;;;;16.10;11.70;;;14.70;99.90;;;;;;5119972;28;20510;-63
2024/03/14 09:21:59;;;;;;;17.03;10.23;;;14.80;99.90;;;;;;5124101;28;20492;-62
2024/03/14 09:24:26;;;;;;;11.50;10.13;;;14.80;99.90;;;;;;5125915;28;20432;-63
2024/03/14 09:26:54;;;;;;;12.27;9.47;;;14.90;99.90;;;;;;5125712;28;20452;-61
2024/03/14 09:29:22;;;;;;;13.10;10.33;;;14.90;99.90;;;;;;5128502;28;20809;-62
2024/03/14 09:31:49;;;;;;;13.60;9.90;;;15.00;99.90;;;;;;5127157;28;20945;-62
2024/03/14 09:34:17;;;;;;;11.80;9.57;;;15.00;99.90;;;;;;5126976;28;20480;-62
2024/03/14 09:36:50;;;;;;;11.73;9.20;;;14.90;99.90;;;;;;5131256;28;20464;-62
2024/03/14 09:39:19;;;;;;;15.30;11.37;;;14.80;99.90;;;;;;5128611;28;20436;-60
2024/03/14 09:41:47;;;;;;;12.20;9.40;;;14.70;99.90;;;;;;5122611;28;20442;-61
2024/03/14 09:44:14;;;;;;;11.20;9.57;;;14.70;99.90;;;;;;5120872;28;20444;-62
2024/03/14 09:46:42;;;;;;;10.80;9.50;;;14.70;99.90;;;;;;5120152;28;20460;-62
2024/03/14 09:49:11;;;;;;;10.57;9.47;;;14.70;99.90;;;;;;5119959;28;20938;-62
2024/03/14 09:51:38;;;;;;;11.70;9.97;;;14.70;99.90;;;;;;5120912;28;20919;-64
2024/03/14 09:54:05;;;;;;;13.20;9.73;;;14.70;99.90;;;;;;5117741;28;20483;-62
2024/03/14 09:56:32;;;;;;;10.37;8.23;;;14.70;99.90;;;;;;5118613;28;20878;-61
2024/03/14 09:58:59;;;;;;;11.47;9.77;;;14.90;99.90;;;;;;5117426;28;20451;-62
2024/03/14 10:01:26;;;;;;;9.83;8.83;;;15.10;99.90;;;;;;5117666;28;20440;-62
2024/03/14 10:03:53;;;;;;;10.27;8.33;;;15.30;99.90;;;;;;5117629;28;20930;-63
2024/03/14 10:06:20;;;;;;;8.50;7.40;;;15.40;99.90;;;;;;5117571;28;20530;-62
2024/03/14 10:08:47;;;;;;;10.20;7.63;;;15.50;99.90;;;;;;5131313;28;20444;-63
2024/03/14 10:11:14;;;;;;;8.47;6.97;;;15.60;99.90;;;;;;5121365;28;20531;-62
2024/03/14 10:13:43;;;;;;;9.17;7.67;;;15.70;99.90;;;;;;5119212;28;20537;-61
2024/03/14 10:16:09;;;;;;;10.20;7.30;;;15.70;99.90;;;;;;5117598;28;20469;-62
2024/03/14 10:18:38;;;;;;;8.50;7.17;;;15.80;99.30;;;;;;5117314;28;20494;-63
2024/03/14 10:21:07;;;;;;;7.47;6.60;;;15.90;98.40;;;;;;5118082;28;20452;-62
2024/03/14 10:23:34;;;;;;;9.30;6.27;;;16.00;97.80;;;;;;5117540;28;20438;-62
2024/03/14 10:26:01;;;;;;;6.00;5.37;;;16.10;97.10;;;;;;5117277;28;20970;-62
2024/03/14 10:28:31;;;;;;;8.40;5.63;;;16.20;96.30;;;;;;5116556;28;20467;-61
2024/03/14 10:31:04;;;;;;;6.40;5.80;;;16.20;94.00;;;;;;5116199;28;20448;-62
2024/03/14 10:33:32;;;;;;;6.20;5.27;;;16.20;93.00;;;;;;5116431;28;20466;-61
2024/03/14 10:35:59;;;;;;;7.73;5.63;;;16.20;92.70;;;;;;5116343;28;20461;-61
2024/03/14 10:38:26;;;;;;;6.23;5.40;;;16.20;91.90;;;;;;5117025;28;20486;-63
2024/03/14 10:40:56;;;;;;;8.90;5.47;;;16.30;91.40;;;;;;5116180;28;20898;-61
2024/03/14 10:43:23;;;;;;;5.57;5.00;;;16.30;90.60;;;;;;5118107;28;20524;-62
2024/03/14 10:45:52;;;;;;;4.97;4.57;;;16.40;90.30;;;;;;5117596;28;20883;-62
2024/03/14 10:48:22;;;;;;;7.87;5.80;;;16.50;89.80;;;;;;5116496;28;20786;-61
2024/03/14 10:50:51;;;;;;;7.03;6.27;;;16.60;88.60;;;;;;5116240;28;20531;-60
2024/03/14 10:53:19;;;;;;;10.07;7.53;;;16.60;88.00;;;;;;5116188;28;20943;-62
2024/03/14 10:55:47;;;;;;;9.23;7.83;;;16.60;87.30;;;;;;5116815;28;20491;-61
2024/03/14 10:58:14;;;;;;;7.83;6.77;;;16.60;88.50;;;;;;5118987;28;20544;-61
2024/03/14 11:00:41;;;;;;;8.67;7.77;;;16.70;88.60;;;;;;5117340;28;20443;-62
2024/03/14 11:03:11;;;;;;;9.80;7.93;;;16.80;87.70;;;;;;5119408;28;20438;-64
2024/03/14 11:05:39;;;;;;;8.60;7.70;;;16.70;86.50;;;;;;5119250;28;20514;-61
2024/03/14 11:08:06;;;;;;;8.60;7.07;;;16.70;87.60;;;;;;5119575;28;21034;-61
2024/03/14 11:10:33;;;;;;;7.93;6.80;;;16.90;87.40;;;;;;5121440;28;20536;-63
2024/03/14 11:13:01;;;;;;;7.60;6.73;;;16.90;86.50;;;;;;5122463;28;20450;-62
2024/03/14 11:15:28;;;;;;;6.87;6.17;;;17.00;86.40;;;;;;5118876;28;20486;-62
2024/03/14 11:17:56;;;;;;;6.63;5.93;;;17.10;86.00;;;;;;5119281;28;20495;-62
2024/03/14 11:20:25;;;;;;;7.23;6.50;;;17.20;84.10;;;;;;5118833;28;20448;-62
2024/03/14 11:22:53;;;;;;;8.53;5.47;;;17.10;82.70;;;;;;5117709;28;20492;-62
2024/03/14 11:25:20;;;;;;;6.60;5.90;;;17.00;81.90;;;;;;5118722;28;20454;-61
2024/03/14 11:27:47;;;;;;;7.33;5.80;;;17.10;80.70;;;;;;5121548;28;20542;-62
2024/03/14 11:30:16;;;;;;;8.77;5.63;;;17.10;79.50;;;;;;5123826;28;20441;-64
2024/03/14 11:32:55;;;;;;;7.40;5.93;;;17.30;79.60;;;;;;5120596;28;20530;-61
2024/03/14 11:35:30;;;;;;;8.37;6.10;;;17.40;78.60;;;;;;5118273;28;20526;-62
2024/03/14 11:37:57;;;;;;;7.60;5.97;;;17.60;77.80;;;;;;5117945;28;20437;-61
2024/03/14 11:40:23;;;;;;;7.80;6.70;;;17.50;76.20;;;;;;5116552;28;20442;-62
2024/03/14 11:42:51;;;;;;;12.13;9.70;;;17.40;75.90;;;;;;5118688;28;20445;-63
2024/03/14 11:45:18;;;;;;;7.97;6.90;;;17.30;76.00;;;;;;5117030;28;20504;-62
2024/03/14 11:47:47;;;;;;;9.23;6.30;;;17.20;76.50;;;;;;5116716;28;20531;-62
2024/03/14 11:50:22;;;;;;;10.67;9.57;;;17.30;76.50;;;;;;5116827;28;20458;-61
2024/03/14 11:52:50;;;;;;;6.83;5.77;;;17.50;76.00;;;;;;5115740;28;20428;-60
2024/03/14 11:55:18;;;;;;;7.30;6.60;;;17.60;75.40;;;;;;5115407;28;20486;-61
2024/03/14 11:57:47;;;;;;;8.40;6.67;;;17.70;74.60;;;;;;5115879;28;20443;-61
2024/03/14 12:00:20;;;;;;;6.40;5.80;;;17.70;74.20;;;;;;5116498;28;20520;-61
2024/03/14 12:02:49;;;;;;;6.67;6.07;;;17.60;73.40;;;;;;5123006;28;20458;-62
2024/03/14 12:05:23;;;;;;;8.50;5.90;;;17.50;73.10;;;;;;5129780;28;20464;-62
2024/03/14 12:07:52;;;;;;;7.07;6.37;;;17.40;73.50;;;;;;5129919;28;20430;-62
2024/03/14 12:10:19;;;;;;;8.70;7.33;;;17.30;73.80;;;;;;5125560;28;20476;-62
2024/03/14 12:12:46;;;;;;;7.83;7.03;;;17.30;73.80;;;;;;5116809;28;20457;-63
2024/03/14 12:15:14;;;;;;;9.37;7.07;;;17.30;73.70;;;;;;5116534;28;20498;-62
2024/03/14 12:17:41;;;;;;;7.63;6.63;;;17.30;73.20;;;;;;5116265;28;20442;-62
2024/03/14 12:20:10;;;;;;;7.87;7.17;;;17.10;73.40;;;;;;5116295;28;20446;-62
2024/03/14 12:22:43;;;;;;;9.33;7.03;;;17.20;74.10;;;;;;5115961;28;20484;-61
2024/03/14 12:25:14;;;;;;;8.73;7.83;;;17.30;74.00;;;;;;5116873;28;20954;-62
2024/03/14 12:27:42;;;;;;;10.20;9.10;;;17.40;73.90;;;;;;5115039;28;20437;-62
2024/03/14 12:30:09;;;;;;;8.67;7.87;;;17.50;74.80;;;;;;5115352;28;20592;-61
2024/03/14 12:32:37;;;;;;;8.70;7.60;;;17.60;73.80;;;;;;5114426;28;20431;-62
2024/03/14 12:35:04;;;;;;;8.13;7.33;;;17.70;73.80;;;;;;5118301;28;20977;-62
2024/03/14 12:37:32;;;;;;;8.60;7.70;;;17.90;73.70;;;;;;5120757;28;20447;-61